createdAt,value
2019-03-24T00:03:18.841Z,101585.47
2019-03-24T00:08:23.242Z,101585.47
2019-03-24T00:13:27.573Z,101572.11
2019-03-24T00:18:31.886Z,101562.22
2019-03-24T00:23:36.203Z,101558.02
2019-03-24T00:28:40.529Z,101558.02
2019-03-24T00:33:44.841Z,101550.60
2019-03-24T00:38:49.167Z,101547.73
2019-03-24T00:43:53.503Z,101547.55
2019-03-24T00:48:57.893Z,101541.38
2019-03-24T00:54:02.199Z,101541.38
2019-03-24T00:59:06.523Z,101539.86
2019-03-24T01:04:10.834Z,101528.34
2019-03-24T01:09:15.159Z,101519.60
2019-03-24T01:14:19.497Z,101520.84
2019-03-24T01:19:23.780Z,101521.23
2019-03-24T01:24:28.135Z,101520.19
2019-03-24T01:29:32.533Z,101517.70
2019-03-24T01:34:36.824Z,101517.70
2019-03-24T01:39:41.130Z,101522.59
2019-03-24T01:44:45.470Z,101522.59
2019-03-24T01:49:49.772Z,101522.00
2019-03-24T01:54:54.112Z,101519.69
2019-03-24T01:59:58.452Z,101513.62
2019-03-24T02:05:03.066Z,101513.62
2019-03-24T02:10:07.723Z,101508.41
2019-03-24T02:15:12.046Z,101508.41
2019-03-24T02:20:16.373Z,101502.66
2019-03-24T02:25:20.716Z,101494.98
2019-03-24T02:30:25.029Z,101494.98
2019-03-24T02:35:29.342Z,101485.78
2019-03-24T02:40:33.641Z,101485.78
2019-03-24T02:45:37.977Z,101482.34
2019-03-24T02:50:42.285Z,101480.79
2019-03-24T02:55:46.622Z,101485.13
2019-03-24T03:00:50.924Z,101483.86
2019-03-24T03:05:55.237Z,101479.77
2019-03-24T03:10:59.558Z,101479.77
2019-03-24T03:16:03.853Z,101470.25
2019-03-24T03:21:08.166Z,101462.36
2019-03-24T03:26:12.480Z,101462.95
2019-03-24T03:31:16.800Z,101462.95
2019-03-24T03:36:21.080Z,101466.77
2019-03-24T03:41:25.399Z,101465.44
2019-03-24T03:46:29.759Z,101456.03
2019-03-24T03:51:34.047Z,101460.47
2019-03-24T03:56:38.380Z,101460.47
2019-03-24T04:01:42.680Z,101455.17
2019-03-24T04:06:47.040Z,101453.92
2019-03-24T04:11:51.339Z,101453.92
2019-03-24T04:17:06.392Z,101454.78
2019-03-24T04:22:01.727Z,101454.78
2019-03-24T04:27:06.060Z,101452.10
2019-03-24T04:32:10.356Z,101452.10
2019-03-24T04:37:14.681Z,101441.56
2019-03-24T04:42:19.064Z,101441.56
2019-03-24T04:47:23.469Z,101428.23
2019-03-24T04:52:27.749Z,101428.23
2019-03-24T04:57:32.033Z,101421.30
2019-03-24T05:02:36.334Z,101423.72
2019-03-24T05:07:41.069Z,101423.72
2019-03-24T05:12:45.353Z,101418.45
2019-03-24T05:17:49.643Z,101420.37
2019-03-24T05:22:53.943Z,101420.06
2019-03-24T05:27:58.255Z,101412.86
2019-03-24T05:33:02.585Z,101412.86
2019-03-24T05:38:06.857Z,101412.20
2019-03-24T05:43:11.136Z,101413.82
2019-03-24T05:48:15.447Z,101403.19
2019-03-24T05:53:19.869Z,101402.91
2019-03-24T05:58:24.207Z,101405.38
2019-03-24T06:03:28.553Z,101401.55
2019-03-24T06:08:32.860Z,101401.55
2019-03-24T06:13:37.304Z,101401.07
2019-03-24T06:18:41.659Z,101405.86
2019-03-24T06:23:46.097Z,101416.81
2019-03-24T06:28:50.521Z,101416.61
2019-03-24T06:33:55.171Z,101416.61
2019-03-24T06:38:59.466Z,101408.94
2019-03-24T06:44:03.747Z,101408.94
2019-03-24T06:49:09.620Z,101406.53
2019-03-24T06:54:13.901Z,101402.70
2019-03-24T06:59:18.194Z,101402.70
2019-03-24T07:04:22.606Z,101401.64
2019-03-24T07:09:26.971Z,101398.27
2019-03-24T07:14:31.303Z,101397.89
2019-03-24T07:19:35.604Z,101396.48
2019-03-24T07:24:39.959Z,101396.48
2019-03-24T07:29:44.267Z,101387.28
2019-03-24T07:34:48.746Z,101383.63
2019-03-24T07:39:53.214Z,101382.66
2019-03-24T07:44:57.593Z,101382.66
2019-03-24T07:50:01.969Z,101386.21
2019-03-24T07:55:06.873Z,101383.53
2019-03-24T08:00:11.569Z,101360.97
2019-03-24T08:05:15.973Z,101360.97
2019-03-24T08:10:20.323Z,101366.29
2019-03-24T08:15:24.649Z,101366.29
2019-03-24T08:20:28.964Z,101361.20
2019-03-24T08:25:33.302Z,101354.16
2019-03-24T08:30:38.462Z,101350.62
2019-03-24T08:35:42.812Z,101339.23
2019-03-24T08:40:47.219Z,101332.48
2019-03-24T08:45:51.567Z,101331.34
2019-03-24T08:50:55.927Z,101322.13
2019-03-24T08:56:00.263Z,101329.05
2019-03-24T09:01:04.704Z,101329.05
2019-03-24T09:06:09.005Z,101327.12
2019-03-24T09:11:13.366Z,101327.12
2019-03-24T09:16:17.692Z,101323.67
2019-03-24T09:21:22.010Z,101322.23
2019-03-24T09:26:26.349Z,101322.23
2019-03-24T09:31:30.784Z,101308.59
2019-03-24T09:36:35.104Z,101307.55
2019-03-24T09:41:39.458Z,101302.45
2019-03-24T09:46:43.760Z,101293.72
2019-03-24T09:51:48.077Z,101285.10
2019-03-24T09:56:52.383Z,101285.10
2019-03-24T10:01:56.768Z,101273.29
2019-03-24T10:07:01.143Z,101273.29
2019-03-24T10:12:05.585Z,101266.53
2019-03-24T10:17:09.910Z,101254.45
2019-03-24T10:22:14.256Z,101238.23
2019-03-24T10:27:18.619Z,101234.03
2019-03-24T10:32:22.983Z,101234.03
2019-03-24T10:37:27.366Z,101229.56
2019-03-24T10:42:31.679Z,101217.09
2019-03-24T10:47:36.001Z,101208.50
2019-03-24T10:52:40.335Z,101202.84
2019-03-24T10:57:44.713Z,101195.52
2019-03-24T11:02:49.028Z,101189.78
2019-03-24T11:07:53.341Z,101183.06
2019-03-24T11:12:57.706Z,101182.86
2019-03-24T11:18:02.047Z,101182.06
2019-03-24T11:23:06.345Z,101175.05
2019-03-24T11:28:10.651Z,101172.36
2019-03-24T11:33:14.956Z,101172.36
2019-03-24T11:38:19.283Z,101162.28
2019-03-24T11:43:23.601Z,101163.14
2019-03-24T11:48:27.896Z,101162.02
2019-03-24T11:53:32.313Z,101162.02
2019-03-24T11:58:36.665Z,101158.58
2019-03-24T12:03:40.966Z,101138.69
2019-03-24T12:08:45.271Z,101138.69
2019-03-24T12:13:49.571Z,101125.91
2019-03-24T12:18:53.872Z,101119.31
2019-03-24T12:23:58.232Z,101119.31
2019-03-24T12:29:02.585Z,101119.05
2019-03-24T12:34:06.889Z,101106.36
2019-03-24T12:39:11.184Z,101096.98
2019-03-24T12:44:15.502Z,101090.61
2019-03-24T12:49:19.812Z,101085.86
2019-03-24T12:54:25.493Z,101080.98
2019-03-24T12:59:30.098Z,101075.83
2019-03-24T13:04:34.432Z,101076.31
2019-03-24T13:09:38.739Z,101067.02
2019-03-24T13:14:43.238Z,101063.98
2019-03-24T13:19:47.583Z,101058.62
2019-03-24T13:24:51.931Z,101060.67
2019-03-24T13:29:56.276Z,101060.67
2019-03-24T13:35:00.595Z,101053.29
2019-03-24T13:40:05.115Z,101046.42
2019-03-24T13:45:09.434Z,101038.36
2019-03-24T13:50:13.730Z,101028.59
2019-03-24T13:55:18.145Z,101028.59
2019-03-24T14:00:22.442Z,101022.69
2019-03-24T14:05:26.759Z,101020.41
2019-03-24T14:10:31.076Z,101015.16
2019-03-24T14:15:35.385Z,101015.16
2019-03-24T14:20:43.718Z,101003.55
2019-03-24T14:25:45.771Z,100990.97
2019-03-24T14:30:50.387Z,100985.06
2019-03-24T14:35:54.797Z,100968.70
2019-03-24T14:40:59.152Z,100968.72
2019-03-24T14:46:03.450Z,100968.72
2019-03-24T14:51:07.783Z,100954.10
2019-03-24T14:56:12.161Z,100954.10
2019-03-24T15:01:16.486Z,100942.69
2019-03-24T15:06:20.794Z,100952.23
2019-03-24T15:11:25.133Z,100959.11
2019-03-24T15:16:29.484Z,100946.52
2019-03-24T15:21:33.801Z,100941.19
2019-03-24T15:26:38.135Z,100941.30
2019-03-24T15:31:42.487Z,100948.89
2019-03-24T15:36:46.842Z,100961.53
2019-03-24T15:41:51.187Z,100953.80
2019-03-24T15:46:55.598Z,100961.37
2019-03-24T15:52:00.046Z,100957.94
2019-03-24T15:57:04.382Z,100956.00
2019-03-24T16:02:08.713Z,100953.24
2019-03-24T16:07:13.057Z,100945.89
2019-03-24T16:12:17.387Z,100933.03
2019-03-24T16:17:21.818Z,100928.45
2019-03-24T16:22:26.568Z,100924.53
2019-03-24T16:27:31.089Z,100924.53
2019-03-24T16:32:35.453Z,100928.37
2019-03-24T16:37:39.866Z,100931.09
2019-03-24T16:42:44.222Z,100926.79
2019-03-24T16:47:48.557Z,100920.94
2019-03-24T16:52:53.048Z,100908.48
2019-03-24T16:57:57.546Z,100902.37
2019-03-24T17:03:01.828Z,100901.52
2019-03-24T17:08:06.174Z,100887.84
2019-03-24T17:13:10.474Z,100889.42
2019-03-24T17:18:15.038Z,100882.84
2019-03-24T17:23:19.344Z,100891.96
2019-03-24T17:28:23.644Z,100887.92
2019-03-24T17:33:27.944Z,100882.38
2019-03-24T17:38:32.268Z,100872.83
2019-03-24T17:43:36.621Z,100872.83
2019-03-24T17:48:40.945Z,100869.30
2019-03-24T17:53:45.247Z,100872.67
2019-03-24T17:58:49.592Z,100872.67
2019-03-24T18:03:53.966Z,100870.76
2019-03-24T18:08:58.269Z,100870.76
2019-03-24T18:14:02.569Z,100865.02
2019-03-24T18:19:07.009Z,100862.78
2019-03-24T18:24:11.305Z,100862.53
2019-03-24T18:29:15.652Z,100863.38
2019-03-24T18:34:19.978Z,100853.61
2019-03-24T18:39:24.355Z,100853.61
2019-03-24T18:44:28.757Z,100864.73
2019-03-24T18:49:33.089Z,100857.76
2019-03-24T18:54:37.420Z,100858.75
2019-03-24T18:59:41.757Z,100858.75
2019-03-24T19:04:46.094Z,100842.62
2019-03-24T19:09:50.425Z,100842.62
2019-03-24T19:14:54.748Z,100849.25
2019-03-24T19:19:59.228Z,100849.25
2019-03-24T19:25:03.559Z,100842.05
2019-03-24T19:30:08.811Z,100836.80
2019-03-24T19:35:13.323Z,100840.29
2019-03-24T19:40:27.831Z,100832.23
2019-03-24T19:45:32.141Z,100832.23
2019-03-24T19:50:36.478Z,100827.34
2019-03-24T19:55:40.802Z,100826.37
2019-03-24T20:00:45.093Z,100815.73
2019-03-24T20:05:49.391Z,100813.16
2019-03-24T20:10:53.765Z,100812.87
2019-03-24T20:15:58.145Z,100812.87
2019-03-24T20:21:02.470Z,100801.19
2019-03-24T20:26:06.759Z,100780.42
2019-03-24T20:31:11.074Z,100781.28
2019-03-24T20:36:15.367Z,100781.28
2019-03-24T20:41:19.666Z,100785.76
2019-03-24T20:46:23.965Z,100784.66
2019-03-24T20:51:28.359Z,100781.61
2019-03-24T20:56:32.660Z,100781.61
2019-03-24T21:01:37.043Z,100776.84
2019-03-24T21:06:41.357Z,100771.47
2019-03-24T21:11:45.748Z,100774.52
2019-03-24T21:16:50.196Z,100767.55
2019-03-24T21:21:54.504Z,100758.76
2019-03-24T21:26:58.846Z,100752.04
2019-03-24T21:32:04.235Z,100749.60
2019-03-24T21:37:08.525Z,100749.60
2019-03-24T21:42:12.984Z,100738.61
2019-03-24T21:47:17.288Z,100730.55
2019-03-24T21:52:21.623Z,100725.17
2019-03-24T21:57:25.993Z,100720.77
2019-03-24T22:02:30.294Z,100722.25
2019-03-24T22:07:34.617Z,100722.25
2019-03-24T22:12:39.105Z,100724.80
2019-03-24T22:17:43.517Z,100730.91
2019-03-24T22:22:47.854Z,100717.59
2019-03-24T22:27:52.211Z,100713.20
2019-03-24T22:32:56.555Z,100713.69
2019-03-24T22:38:00.849Z,100702.54
2019-03-24T22:43:05.153Z,100702.54
2019-03-24T22:48:09.512Z,100699.37
2019-03-24T22:53:13.797Z,100692.08
2019-03-24T22:58:18.207Z,100685.56
2019-03-24T23:03:25.113Z,100685.56
2019-03-24T23:08:29.227Z,100674.73
2019-03-24T23:13:33.748Z,100669.20
2019-03-24T23:18:38.104Z,100669.20
2019-03-24T23:23:42.544Z,100658.21
2019-03-24T23:28:46.867Z,100633.66
2019-03-24T23:33:51.321Z,100640.98
2019-03-24T23:38:57.296Z,100640.98
2019-03-24T23:44:04.110Z,100641.72
2019-03-24T23:49:08.683Z,100631.34
2019-03-24T23:54:13.058Z,100631.34
2019-03-24T23:59:17.509Z,100610.46
